Time;durP1;ratioP1;P1;durP2;ratioP2;P2;SDS_P1;SDS_P2;PMS_P1;PMS_P2;Temp;Humidity;BMP_temperature;BMP_pressure;BME280_temperature;BME280_humidity;BME280_pressure;Samples;Min_cycle;Max_cycle;Signal;HPM_P1;HPM_P2
2021/06/28 00:01:30;;;;;;;;;0.00;0.00;;;;;21.87;64.61;100811.88;5123358;27;45225;-68
2021/06/28 00:03:56;;;;;;;;;0.00;0.00;;;;;21.88;64.76;100808.19;5123382;27;45255;-67
2021/06/28 00:06:21;;;;;;;;;0.00;0.00;;;;;21.90;65.07;100810.69;5103678;27;45652;-68
2021/06/28 00:08:48;;;;;;;;;0.00;0.00;;;;;21.91;64.74;100805.13;5083939;27;46852;-67
2021/06/28 00:11:13;;;;;;;;;0.00;0.00;;;;;21.93;63.95;100804.94;5103669;27;45313;-67
2021/06/28 00:13:41;;;;;;;;;0.00;0.00;;;;;21.93;64.49;100807.59;5091762;27;45287;-67
2021/06/28 00:16:07;;;;;;;;;0.00;0.00;;;;;21.88;64.59;100807.38;5123071;27;45502;-66
2021/06/28 00:18:33;;;;;;;;;0.00;0.00;;;;;21.87;64.77;100808.38;5104003;27;47023;-66
2021/06/28 00:20:58;;;;;;;;;0.00;0.00;;;;;21.88;64.99;100805.50;5103268;27;45321;-67
2021/06/28 00:23:24;;;;;;;;;0.00;0.00;;;;;21.90;64.57;100808.00;5102680;27;45246;-67
2021/06/28 00:25:49;;;;;;;;;0.00;0.00;;;;;21.94;64.70;100798.56;5102580;27;45183;-67
2021/06/28 00:28:15;;;;;;;;;0.00;0.00;;;;;21.98;64.56;100799.00;5102270;27;45435;-67
2021/06/28 00:30:42;;;;;;;;;0.00;0.00;;;;;21.99;64.52;100790.81;5121679;27;45191;-67
2021/06/28 00:33:14;;;;;;;;;0.00;0.00;;;;;22.02;64.80;100779.69;5122925;27;45603;-68
2021/06/28 00:35:40;;;;;;;;;0.00;0.00;;;;;22.03;64.09;100772.50;5123209;27;45489;-67
2021/06/28 00:38:06;;;;;;;;;0.00;0.00;;;;;22.04;64.66;100774.16;5104185;27;48267;-67
2021/06/28 00:40:34;;;;;;;;;0.00;0.00;;;;;22.02;64.54;100766.34;5104254;27;45270;-67
2021/06/28 00:42:59;;;;;;;;;0.00;0.00;;;;;21.97;64.43;100758.06;5104044;27;45295;-67
2021/06/28 00:45:33;;;;;;;;;0.00;0.00;;;;;21.92;64.09;100753.31;5123073;27;45321;-67
2021/06/28 00:48:07;;;;;;;;;0.00;0.00;;;;;21.88;64.50;100744.03;5103788;27;47952;-68
2021/06/28 00:50:35;;;;;;;;;0.00;0.00;;;;;21.86;64.56;100740.72;5122689;27;45239;-67
2021/06/28 00:53:05;;;;;;;;;0.00;0.00;;;;;21.82;64.59;100739.44;5122690;27;45325;-66
2021/06/28 00:55:31;;;;;;;;;0.00;0.00;;;;;21.82;64.39;100738.63;5122957;27;45301;-67
2021/06/28 00:57:57;;;;;;;;;0.00;0.00;;;;;21.82;64.42;100742.13;5122309;27;46160;-67
2021/06/28 01:00:23;;;;;;;;;0.00;0.00;;;;;21.81;64.52;100737.75;5103972;27;45476;-67
2021/06/28 01:02:49;;;;;;;;;0.00;0.00;;;;;21.82;64.44;100735.94;5122180;27;45362;-67
2021/06/28 01:05:17;;;;;;;;;0.00;0.00;;;;;21.80;64.47;100730.78;5083652;27;45529;-67
2021/06/28 01:07:43;;;;;;;;;0.00;0.00;;;;;21.78;64.40;100719.44;5083431;27;47254;-68
2021/06/28 01:10:11;;;;;;;;;0.00;0.00;;;;;21.75;64.52;100717.19;5105609;27;45327;-67
2021/06/28 01:12:36;;;;;;;;;0.00;0.00;;;;;21.75;64.29;100719.84;5105556;27;45286;-67
2021/06/28 01:15:04;;;;;;;;;0.00;0.00;;;;;21.74;64.48;100715.50;5117055;27;45154;-67
2021/06/28 01:17:30;;;;;;;;;0.00;0.00;;;;;21.70;64.99;100704.38;5106822;27;47322;-67
2021/06/28 01:20:12;;;;;;;;;0.00;0.00;;;;;21.65;64.59;100696.09;5126434;27;45466;-67
2021/06/28 01:22:41;;;;;;;;;0.00;0.00;;;;;21.56;64.61;100685.75;5107707;27;45286;-68
2021/06/28 01:25:10;;;;;;;;;0.00;0.00;;;;;21.50;65.05;100688.16;5126480;27;45310;-68
2021/06/28 01:27:36;;;;;;;;;0.00;0.00;;;;;21.42;65.82;100674.94;5107473;27;48046;-68
2021/06/28 01:30:08;;;;;;;;;0.00;0.00;;;;;21.35;65.75;100682.03;5125965;27;45251;-68
2021/06/28 01:32:33;;;;;;;;;0.00;0.00;;;;;21.33;66.01;100702.78;5107316;27;45258;-67
2021/06/28 01:34:59;;;;;;;;;0.00;0.00;;;;;21.36;65.64;100717.59;5107642;27;45585;-67
2021/06/28 01:37:28;;;;;;;;;0.00;0.00;;;;;21.38;65.57;100724.41;5126026;27;45603;-67
2021/06/28 01:40:00;;;;;;;;;0.00;0.00;;;;;21.41;65.74;100732.06;5125896;27;45261;-67
2021/06/28 01:42:27;;;;;;;;;0.00;0.00;;;;;21.43;65.41;100737.25;5126050;27;45376;-67
2021/06/28 01:44:53;;;;;;;;;0.00;0.00;;;;;21.46;65.68;100743.00;5125988;27;45369;-68
2021/06/28 01:47:20;;;;;;;;;0.00;0.00;;;;;21.51;65.43;100745.09;5125633;27;46842;-68
2021/06/28 01:49:45;;;;;;;;;0.00;0.00;;;;;21.55;64.88;100743.72;5125461;27;45273;-68
2021/06/28 01:52:11;;;;;;;;;0.00;0.00;;;;;21.60;65.40;100748.50;5106935;27;45325;-67
2021/06/28 01:54:37;;;;;;;;;0.00;0.00;;;;;21.63;65.44;100753.47;5125454;27;45423;-67
2021/06/28 01:57:03;;;;;;;;;0.00;0.00;;;;;21.65;65.18;100746.91;5103588;27;48312;-67
2021/06/28 01:59:33;;;;;;;;;0.00;0.00;;;;;21.67;65.17;100741.38;5103406;27;45271;-67
2021/06/28 02:02:00;;;;;;;;;0.00;0.00;;;;;21.70;65.12;100723.06;5104885;27;45337;-67
2021/06/28 02:04:27;;;;;;;;;0.00;0.00;;;;;21.68;64.87;100733.16;5101368;27;45427;-66
2021/06/28 02:06:55;;;;;;;;;0.00;0.00;;;;;21.70;64.97;100738.28;5084509;28;45434;-67
2021/06/28 02:09:20;;;;;;;;;0.00;0.00;;;;;21.70;64.64;100740.97;5084091;27;45231;-68
2021/06/28 02:11:47;;;;;;;;;0.00;0.00;;;;;21.67;64.95;100746.72;5084495;27;45257;-68
2021/06/28 02:14:13;;;;;;;;;0.00;0.00;;;;;21.67;63.99;100747.53;5084272;27;45487;-67
2021/06/28 02:16:42;;;;;;;;;0.00;0.00;;;;;21.64;63.99;100755.94;5094956;27;46635;-67
2021/06/28 02:19:07;;;;;;;;;0.00;0.00;;;;;21.61;63.41;100752.81;5103880;27;45447;-68
2021/06/28 02:21:33;;;;;;;;;0.00;0.00;;;;;21.52;63.03;100741.44;5103794;27;45343;-67
2021/06/28 02:23:58;;;;;;;;;0.00;0.00;;;;;21.46;62.60;100726.97;5104478;27;45552;-68
2021/06/28 02:26:23;;;;;;;;;0.00;0.00;;;;;21.41;62.74;100724.06;5103050;27;47906;-67
2021/06/28 02:28:49;;;;;;;;;0.00;0.00;;;;;21.40;62.45;100730.38;5102862;27;45243;-67
2021/06/28 02:31:21;;;;;;;;;0.00;0.00;;;;;21.37;62.37;100729.94;5103116;27;45370;-67
2021/06/28 02:33:47;;;;;;;;;0.00;0.00;;;;;21.34;62.49;100717.81;5104234;27;45355;-68
2021/06/28 02:36:13;;;;;;;;;0.00;0.00;;;;;21.34;62.54;100708.94;5104155;27;46269;-68
2021/06/28 02:38:40;;;;;;;;;0.00;0.00;;;;;21.33;62.29;100713.47;5104154;27;45228;-68
2021/06/28 02:41:06;;;;;;;;;0.00;0.00;;;;;21.30;62.30;100716.53;5104356;27;45292;-67
2021/06/28 02:43:32;;;;;;;;;0.00;0.00;;;;;21.28;62.03;100726.56;5104065;27;45334;-68
2021/06/28 02:45:58;;;;;;;;;0.00;0.00;;;;;21.27;62.20;100741.78;5104176;27;45276;-67
2021/06/28 02:48:24;;;;;;;;;0.00;0.00;;;;;21.28;62.51;100746.09;5103601;27;45345;-66
2021/06/28 02:50:50;;;;;;;;;0.00;0.00;;;;;21.28;61.95;100748.75;5104420;27;45383;-67
2021/06/28 02:53:17;;;;;;;;;0.00;0.00;;;;;21.29;62.36;100762.94;5102672;27;45457;-67
2021/06/28 02:55:44;;;;;;;;;0.00;0.00;;;;;21.30;62.22;100761.94;5105636;27;45513;-67
2021/06/28 02:58:09;;;;;;;;;0.00;0.00;;;;;21.27;62.20;100770.31;5105747;27;45279;-67
2021/06/28 03:00:35;;;;;;;;;0.00;0.00;;;;;21.25;61.96;100773.19;5124574;27;45587;-67
2021/06/28 03:03:00;;;;;;;;;0.00;0.00;;;;;21.25;62.16;100775.88;5124152;27;45407;-67
2021/06/28 03:05:26;;;;;;;;;0.00;0.00;;;;;21.24;61.99;100766.19;5112430;27;45365;-68
2021/06/28 03:07:52;;;;;;;;;0.00;0.00;;;;;21.22;62.24;100762.06;5085427;27;45375;-67
2021/06/28 03:10:18;;;;;;;;;0.00;0.00;;;;;21.22;62.34;100748.69;5085691;27;45270;-68
2021/06/28 03:12:43;;;;;;;;;0.00;0.00;;;;;21.21;62.35;100744.34;5085082;27;45264;-68
2021/06/28 03:15:12;;;;;;;;;0.00;0.00;;;;;21.19;62.37;100747.22;5115690;27;45458;-67
2021/06/28 03:17:38;;;;;;;;;0.00;0.00;;;;;21.14;62.32;100754.16;5123597;27;45607;-68
2021/06/28 03:20:06;;;;;;;;;0.00;0.00;;;;;21.10;62.64;100749.19;5093905;27;45197;-66
2021/06/28 03:22:32;;;;;;;;;0.00;0.00;;;;;21.06;62.72;100739.06;5085276;27;45280;-66
2021/06/28 03:24:57;;;;;;;;;0.00;0.00;;;;;21.05;62.90;100732.06;5115626;27;45407;-66
2021/06/28 03:27:22;;;;;;;;;0.00;0.00;;;;;21.03;62.53;100726.91;5124006;27;45346;-66
2021/06/28 03:29:48;;;;;;;;;0.00;0.00;;;;;21.03;62.82;100721.56;5124220;27;45151;-66
2021/06/28 03:32:13;;;;;;;;;0.00;0.00;;;;;21.01;62.86;100707.56;5123440;27;45348;-66
2021/06/28 03:34:38;;;;;;;;;0.00;0.00;;;;;21.01;63.14;100699.56;5123808;27;45311;-67
2021/06/28 03:37:05;;;;;;;;;0.00;0.00;;;;;21.02;62.72;100706.56;5123814;27;45419;-66
2021/06/28 03:39:31;;;;;;;;;0.00;0.00;;;;;21.04;63.05;100717.06;5123885;27;45357;-66
2021/06/28 03:41:56;;;;;;;;;0.00;0.00;;;;;21.04;62.72;100712.56;5123676;27;45316;-67
2021/06/28 03:44:22;;;;;;;;;0.00;0.00;;;;;21.03;62.89;100708.22;5123499;27;46268;-68
2021/06/28 03:46:47;;;;;;;;;0.00;0.00;;;;;21.03;62.58;100712.72;5123541;27;45349;-66
2021/06/28 03:49:12;;;;;;;;;0.00;0.00;;;;;21.03;62.82;100718.06;5123514;27;45292;-67
2021/06/28 03:51:38;;;;;;;;;0.00;0.00;;;;;21.00;62.50;100721.94;5124058;27;45284;-67
2021/06/28 03:54:03;;;;;;;;;0.00;0.00;;;;;20.99;62.78;100711.44;5105027;27;47004;-67
2021/06/28 03:56:28;;;;;;;;;0.00;0.00;;;;;20.99;62.79;100717.63;5105275;27;45744;-67
2021/06/28 03:58:54;;;;;;;;;0.00;0.00;;;;;20.97;62.80;100719.66;5123736;27;45426;-68
2021/06/28 04:01:19;;;;;;;;;0.00;0.00;;;;;20.93;62.82;100730.88;5123560;27;45344;-67
2021/06/28 04:03:45;;;;;;;;;0.00;0.00;;;;;20.90;62.62;100730.25;5104439;27;48137;-67
2021/06/28 04:06:10;;;;;;;;;0.00;0.00;;;;;20.90;62.94;100724.09;5104768;27;45489;-67
2021/06/28 04:08:38;;;;;;;;;0.00;0.00;;;;;20.88;62.99;100732.31;5123606;27;45463;-68
2021/06/28 04:11:04;;;;;;;;;0.00;0.00;;;;;20.89;63.09;100730.44;5123537;27;45540;-67
2021/06/28 04:13:30;;;;;;;;;0.00;0.00;;;;;20.87;63.02;100725.28;5111910;27;46518;-66
2021/06/28 04:15:56;;;;;;;;;0.00;0.00;;;;;20.85;63.20;100723.81;5104326;27;45610;-68
2021/06/28 04:18:21;;;;;;;;;0.00;0.00;;;;;20.85;63.22;100739.84;5123311;27;45303;-68
2021/06/28 04:20:47;;;;;;;;;0.00;0.00;;;;;20.85;62.76;100734.50;5104691;27;45321;-67
2021/06/28 04:23:13;;;;;;;;;0.00;0.00;;;;;20.83;63.07;100734.69;5123375;27;45421;-67
2021/06/28 04:25:39;;;;;;;;;0.00;0.00;;;;;20.80;63.06;100740.41;5123077;27;45334;-67
2021/06/28 04:28:05;;;;;;;;;0.00;0.00;;;;;20.79;63.13;100725.38;5123301;27;45268;-67
2021/06/28 04:30:30;;;;;;;;;0.00;0.00;;;;;20.79;63.07;100728.06;5123134;27;45549;-68
2021/06/28 04:32:56;;;;;;;;;0.00;0.00;;;;;20.81;62.88;100733.22;5103990;27;47878;-68
2021/06/28 04:35:24;;;;;;;;;0.00;0.00;;;;;20.79;62.96;100735.25;5104464;27;45584;-67
2021/06/28 04:37:54;;;;;;;;;0.00;0.00;;;;;20.76;63.02;100743.63;5124770;27;45322;-67
2021/06/28 04:40:22;;;;;;;;;0.00;0.00;;;;;20.70;62.95;100747.88;5124696;27;45482;-66
2021/06/28 04:42:49;;;;;;;;;0.00;0.00;;;;;20.66;63.17;100741.25;5104840;27;47250;-68
2021/06/28 04:45:16;;;;;;;;;0.00;0.00;;;;;20.62;63.84;100756.78;5105729;27;45444;-67
2021/06/28 04:47:41;;;;;;;;;0.00;0.00;;;;;20.56;63.68;100752.19;5123990;27;45378;-67
2021/06/28 04:50:09;;;;;;;;;0.00;0.00;;;;;20.57;63.80;100758.34;5104107;27;45478;-67
2021/06/28 04:52:36;;;;;;;;;0.00;0.00;;;;;20.50;64.42;100771.59;5122450;27;46310;-67
2021/06/28 04:55:04;;;;;;;;;0.00;0.00;;;;;20.52;64.13;100776.72;5104007;27;45609;-67
2021/06/28 04:57:29;;;;;;;;;0.00;0.00;;;;;20.51;64.55;100783.06;5122505;27;45268;-67
2021/06/28 04:59:55;;;;;;;;;0.00;0.00;;;;;20.48;64.76;100779.75;5122704;27;45506;-68
2021/06/28 05:02:20;;;;;;;;;0.00;0.00;;;;;20.46;64.58;100781.78;5103407;27;46844;-67
2021/06/28 05:04:47;;;;;;;;;0.00;0.00;;;;;20.48;64.95;100790.44;5116490;27;45365;-67
2021/06/28 05:07:16;;;;;;;;;0.00;0.00;;;;;20.47;64.30;100794.13;5114669;27;45308;-68
2021/06/28 05:09:43;;;;;;;;;0.00;0.00;;;;;20.48;64.88;100778.94;5122686;27;45410;-67
2021/06/28 05:12:09;;;;;;;;;0.00;0.00;;;;;20.47;64.52;100786.13;5122495;27;46359;-66
2021/06/28 05:14:35;;;;;;;;;0.00;0.00;;;;;20.50;64.74;100782.25;5108270;27;45341;-67
2021/06/28 05:17:00;;;;;;;;;0.00;0.00;;;;;20.53;64.39;100781.88;5122393;27;45306;-67
2021/06/28 05:19:26;;;;;;;;;0.00;0.00;;;;;20.54;64.10;100802.22;5103712;27;45496;-67
2021/06/28 05:21:51;;;;;;;;;0.00;0.00;;;;;20.54;64.44;100798.72;5121963;27;45414;-67
2021/06/28 05:24:16;;;;;;;;;0.00;0.00;;;;;20.59;64.06;100796.38;5122153;27;45311;-68
2021/06/28 05:26:42;;;;;;;;;0.00;0.00;;;;;20.59;64.40;100785.69;5103630;27;45365;-68
2021/06/28 05:29:07;;;;;;;;;0.00;0.00;;;;;20.61;64.33;100781.00;5122120;27;45367;-67
2021/06/28 05:31:32;;;;;;;;;0.00;0.00;;;;;20.60;64.20;100792.66;5122070;27;45353;-68
2021/06/28 05:33:58;;;;;;;;;0.00;0.00;;;;;20.57;64.34;100790.34;5121345;27;45359;-69
2021/06/28 05:36:24;;;;;;;;;0.00;0.00;;;;;20.55;64.30;100800.38;5103882;27;45272;-67
2021/06/28 05:38:49;;;;;;;;;0.00;0.00;;;;;20.56;64.22;100802.03;5122558;27;45589;-67
2021/06/28 05:41:16;;;;;;;;;0.75;0.75;;;;;20.51;64.39;100799.91;5122017;27;46534;-68
2021/06/28 05:43:41;;;;;;;;;0.00;0.00;;;;;20.50;63.92;100795.59;5103303;27;45301;-68
2021/06/28 05:46:07;;;;;;;;;0.00;0.00;;;;;20.48;64.96;100786.94;5122270;27;45317;-68
2021/06/28 05:48:32;;;;;;;;;0.00;0.00;;;;;20.48;64.36;100777.09;5103017;27;45180;-69
2021/06/28 05:50:57;;;;;;;;;0.00;0.00;;;;;20.42;64.67;100766.34;5122074;27;45374;-68
2021/06/28 05:53:23;;;;;;;;;0.00;0.00;;;;;20.39;65.04;100754.19;5103126;27;45280;-68
2021/06/28 05:55:48;;;;;;;;;0.00;0.00;;;;;20.41;64.97;100762.00;5106172;27;45235;-68
2021/06/28 05:58:16;;;;;;;;;0.00;0.00;;;;;20.42;64.85;100774.34;5125004;27;45383;-69
2021/06/28 06:00:42;;;;;;;;;0.00;0.00;;;;;20.41;64.95;100759.31;5124884;27;46996;-68
2021/06/28 06:03:07;;;;;;;;;0.00;0.00;;;;;20.42;64.97;100759.16;5124711;27;45255;-69
2021/06/28 06:05:33;;;;;;;;;0.00;0.00;;;;;20.47;64.62;100762.13;5112599;27;45227;-69
2021/06/28 06:07:58;;;;;;;;;0.00;0.00;;;;;20.48;64.97;100755.75;5123563;27;45634;-69
2021/06/28 06:10:23;;;;;;;;;0.00;0.00;;;;;20.54;64.60;100751.53;5124946;27;46189;-69
2021/06/28 06:12:49;;;;;;;;;0.00;0.00;;;;;20.56;64.69;100748.66;5118889;27;45159;-68
2021/06/28 06:15:15;;;;;;;;;0.00;0.00;;;;;20.59;64.90;100772.34;5116719;27;45261;-68
2021/06/28 06:17:41;;;;;;;;;0.00;0.00;;;;;20.57;64.80;100783.19;5124835;27;45303;-69
2021/06/28 06:20:08;;;;;;;;;0.00;0.00;;;;;20.60;64.61;100780.16;5124674;27;46485;-69
2021/06/28 06:22:33;;;;;;;;;0.00;0.00;;;;;20.60;64.76;100782.81;5105862;27;45281;-68
2021/06/28 06:24:59;;;;;;;;;0.00;0.00;;;;;20.64;64.52;100788.63;5124657;27;45425;-68
2021/06/28 06:27:24;;;;;;;;;0.00;0.00;;;;;20.65;64.71;100803.66;5124142;27;45275;-69
2021/06/28 06:29:50;;;;;;;;;0.00;0.00;;;;;20.69;63.97;100808.44;5124143;27;45461;-69
2021/06/28 06:32:15;;;;;;;;;0.00;0.00;;;;;20.73;64.12;100822.22;5124103;27;45314;-69
2021/06/28 06:34:41;;;;;;;;;0.00;0.00;;;;;20.78;63.95;100829.69;5124485;27;45431;-68
2021/06/28 06:37:06;;;;;;;;;0.00;0.00;;;;;20.80;63.68;100831.16;5124544;27;45461;-68
2021/06/28 06:39:33;;;;;;;;;0.00;0.00;;;;;20.86;63.59;100826.91;5124220;27;46432;-68
2021/06/28 06:41:58;;;;;;;;;0.00;0.00;;;;;20.88;63.38;100812.38;5105213;27;46744;-68
2021/06/28 06:44:24;;;;;;;;;0.00;0.00;;;;;20.87;63.34;100828.59;5124162;27;45260;-68
2021/06/28 06:46:49;;;;;;;;;0.00;0.00;;;;;20.87;63.40;100818.72;5105644;27;45199;-69
2021/06/28 06:49:15;;;;;;;;;0.00;0.00;;;;;20.89;63.10;100821.22;5123601;27;45459;-68
2021/06/28 06:51:40;;;;;;;;;0.00;0.00;;;;;20.91;63.07;100824.53;5105465;27;45277;-68
2021/06/28 06:54:06;;;;;;;;;0.00;0.00;;;;;20.94;63.10;100821.47;5124123;27;45253;-68
2021/06/28 06:56:31;;;;;;;;;0.00;0.00;;;;;20.96;62.94;100816.78;5124097;27;45227;-69
2021/06/28 06:58:57;;;;;;;;;0.00;0.00;;;;;21.00;62.72;100820.75;5123454;27;45280;-68
2021/06/28 07:01:23;;;;;;;;;0.00;0.00;;;;;21.04;62.77;100829.22;5123470;27;45354;-68
2021/06/28 07:03:48;;;;;;;;;0.00;0.00;;;;;21.13;62.54;100829.94;5123516;27;45358;-68
2021/06/28 07:06:14;;;;;;;;;0.00;0.00;;;;;21.19;62.78;100826.53;5105375;27;45392;-67
2021/06/28 07:08:39;;;;;;;;;0.00;0.00;;;;;21.26;62.45;100827.44;5094913;27;47285;-67
2021/06/28 07:11:10;;;;;;;;;0.00;0.00;;;;;21.33;62.63;100814.97;5122667;27;45296;-67
2021/06/28 07:13:36;;;;;;;;;0.00;0.00;;;;;21.42;62.12;100823.75;5112212;27;45301;-68
2021/06/28 07:16:01;;;;;;;;;0.00;0.00;;;;;21.53;61.95;100828.59;5121390;27;45171;-68
2021/06/28 07:18:26;;;;;;;;;0.00;0.00;;;;;21.67;61.54;100821.56;5123691;27;45347;-68
2021/06/28 07:20:52;;;;;;;;;0.00;0.00;;;;;21.85;61.32;100832.63;5104720;27;45750;-68
2021/06/28 07:23:17;;;;;;;;;0.00;0.00;;;;;22.12;60.50;100824.84;5105043;27;45210;-68
2021/06/28 07:25:43;;;;;;;;;0.00;0.00;;;;;22.67;59.76;100825.88;5123804;27;45544;-67
2021/06/28 07:28:10;;;;;;;;;0.00;0.00;;;;;23.31;58.73;100827.47;5123579;27;46343;-68
2021/06/28 07:30:36;;;;;;;;;0.00;0.00;;;;;24.10;57.72;100827.84;5104095;27;45395;-68
2021/06/28 07:33:02;;;;;;;;;0.00;0.00;;;;;24.94;55.97;100837.06;5122852;27;45333;-69
2021/06/28 07:35:27;;;;;;;;;0.00;0.00;;;;;25.68;53.44;100826.81;5104654;27;45501;-66
2021/06/28 07:37:52;;;;;;;;;0.00;0.00;;;;;26.27;51.91;100836.34;5123543;27;45329;-68
2021/06/28 07:40:19;;;;;;;;;0.00;0.00;;;;;26.10;51.97;100837.94;5104749;27;46281;-68
2021/06/28 07:42:46;;;;;;;;;0.00;0.00;;;;;26.22;51.50;100840.72;5123171;27;45159;-68
2021/06/28 07:45:12;;;;;;;;;0.00;0.00;;;;;26.65;50.48;100839.94;5123511;27;45551;-68
2021/06/28 07:47:37;;;;;;;;;0.00;0.00;;;;;26.96;49.56;100836.28;5122996;27;45777;-69
2021/06/28 07:50:05;;;;;;;;;0.00;0.00;;;;;26.97;49.43;100843.31;5123340;27;45346;-68
2021/06/28 07:52:30;;;;;;;;;0.00;0.00;;;;;26.69;48.34;100841.94;5123433;27;45333;-68
2021/06/28 07:54:56;;;;;;;;;0.00;0.00;;;;;26.40;48.80;100851.56;5123122;27;45431;-67
2021/06/28 07:57:22;;;;;;;;;0.00;0.00;;;;;26.79;48.54;100852.22;5122617;27;45557;-67
2021/06/28 07:59:47;;;;;;;;;0.00;0.00;;;;;26.86;48.02;100849.47;5122903;27;45421;-67
2021/06/28 08:02:13;;;;;;;;;0.00;0.00;;;;;27.28;47.94;100846.91;5122523;27;45338;-68
2021/06/28 08:04:38;;;;;;;;;0.00;0.00;;;;;28.07;47.26;100841.44;5098968;27;45451;-68
2021/06/28 08:07:04;;;;;;;;;0.00;0.00;;;;;28.56;44.74;100839.38;5114230;27;45524;-68
2021/06/28 08:09:29;;;;;;;;;0.00;0.00;;;;;28.88;44.69;100847.06;5122919;27;45341;-68
2021/06/28 08:11:58;;;;;;;;;0.00;0.00;;;;;29.24;44.74;100846.81;5122970;27;45225;-67
2021/06/28 08:14:24;;;;;;;;;0.00;0.00;;;;;29.23;43.52;100842.44;5104973;27;45329;-67
2021/06/28 08:16:50;;;;;;;;;0.00;0.00;;;;;29.55;44.03;100850.09;5122427;27;45667;-68
2021/06/28 08:19:15;;;;;;;;;0.00;0.00;;;;;29.60;42.95;100858.28;5120925;27;45422;-68
2021/06/28 08:21:41;;;;;;;;;0.00;0.00;;;;;30.02;43.23;100847.13;5122219;27;45230;-68
2021/06/28 08:24:08;;;;;;;;;0.00;0.00;;;;;29.88;42.05;100837.69;5103953;27;45304;-69
2021/06/28 08:26:34;;;;;;;;;0.00;0.00;;;;;29.34;41.04;100853.47;5122638;27;46444;-68
2021/06/28 08:29:04;;;;;;;;;0.00;0.00;;;;;29.12;42.08;100847.91;5122496;27;45442;-68
2021/06/28 08:31:36;;;;;;;;;0.00;0.00;;;;;29.35;41.72;100841.56;5122728;27;45357;-68
2021/06/28 08:34:02;;;;;;;;;0.00;0.00;;;;;29.38;42.24;100838.41;5122642;27;45738;-68
2021/06/28 08:36:27;;;;;;;;;0.00;0.00;;;;;29.58;41.94;100840.66;5122488;27;46470;-67
2021/06/28 08:38:53;;;;;;;;;0.00;0.00;;;;;29.28;41.85;100843.59;5102973;27;45251;-68
2021/06/28 08:41:18;;;;;;;;;0.00;0.00;;;;;29.39;41.58;100846.25;5122281;27;45246;-68
2021/06/28 08:43:45;;;;;;;;;0.00;0.00;;;;;29.37;40.31;100848.38;5122423;27;45403;-68
2021/06/28 08:46:14;;;;;;;;;0.00;0.00;;;;;29.04;41.10;100846.34;5122268;27;45487;-67
2021/06/28 08:48:46;;;;;;;;;0.00;0.00;;;;;28.80;41.51;100845.59;5103359;27;45789;-68
2021/06/28 08:51:12;;;;;;;;;0.00;0.00;;;;;28.65;41.60;100845.25;5104144;27;45435;-68
2021/06/28 08:53:37;;;;;;;;;0.00;0.00;;;;;28.32;41.01;100843.94;5122579;27;45346;-69
2021/06/28 08:56:07;;;;;;;;;0.00;0.00;;;;;28.05;42.06;100844.38;5102986;27;47529;-68
2021/06/28 08:58:34;;;;;;;;;0.00;0.00;;;;;27.86;41.87;100849.03;5121653;27;45279;-67
2021/06/28 09:00:59;;;;;;;;;0.00;0.00;;;;;27.72;42.72;100837.59;5122011;27;45415;-68
2021/06/28 09:03:25;;;;;;;;;0.00;0.00;;;;;27.72;42.93;100851.06;5121886;27;45699;-67
2021/06/28 09:06:00;;;;;;;;;0.00;0.00;;;;;27.99;43.47;100835.34;5103035;27;47112;-67
2021/06/28 09:08:26;;;;;;;;;0.00;0.00;;;;;28.68;42.88;100839.38;5121865;27;45337;-69
2021/06/28 09:10:52;;;;;;;;;0.00;0.00;;;;;29.29;41.96;100843.38;5103513;27;45340;-68
2021/06/28 09:13:17;;;;;;;;;0.00;0.00;;;;;31.16;41.16;100836.81;5100236;27;45575;-69
2021/06/28 09:15:48;;;;;;;;;0.00;0.00;;;;;33.58;38.73;100842.81;5117408;27;45281;-68
2021/06/28 09:18:23;;;;;;;;;0.00;0.00;;;;;34.14;34.60;100846.69;5121656;27;45244;-70
2021/06/28 09:20:50;;;;;;;;;0.00;0.00;;;;;33.17;35.65;100855.50;5085328;27;45185;-68
2021/06/28 09:23:22;;;;;;;;;0.00;0.00;;;;;32.16;35.84;100850.06;5112987;27;45471;-68
2021/06/28 09:25:48;;;;;;;;;0.00;0.00;;;;;31.32;36.92;100856.81;5121393;27;45383;-67
2021/06/28 09:28:14;;;;;;;;;0.00;0.00;;;;;30.63;37.42;100870.84;5121775;27;45101;-68
2021/06/28 09:30:46;;;;;;;;;0.00;0.00;;;;;30.05;38.53;100864.78;5105512;27;45469;-68
2021/06/28 09:33:11;;;;;;;;;0.00;0.00;;;;;29.62;39.36;100864.28;5125062;27;45285;-68
2021/06/28 09:35:39;;;;;;;;;0.00;0.00;;;;;29.94;37.84;100862.97;5125111;27;45313;-68
2021/06/28 09:38:38;;;;;;;;;0.00;0.00;;;;;30.45;37.46;100855.66;5125375;27;45413;-68
2021/06/28 09:41:33;;;;;;;;;0.00;0.00;;;;;31.61;35.98;100864.75;5106854;27;45461;-68
2021/06/28 09:44:04;;;;;;;;;0.00;0.00;;;;;31.16;34.65;100872.09;5106220;27;45457;-68
2021/06/28 09:46:31;;;;;;;;;0.00;0.00;;;;;30.21;35.80;100874.78;5124686;27;46246;-68
2021/06/28 09:48:57;;;;;;;;;0.00;0.00;;;;;29.51;36.57;100883.28;5105384;27;45614;-69
2021/06/28 09:51:30;;;;;;;;;0.00;0.00;;;;;28.94;37.81;100875.88;5124638;27;45410;-68
2021/06/28 09:54:14;;;;;;;;;0.00;0.00;;;;;28.42;38.90;100881.97;5106508;27;45581;-69
2021/06/28 09:56:45;;;;;;;;;0.00;0.00;;;;;28.12;39.39;100879.34;5124690;27;47154;-68
2021/06/28 09:59:21;;;;;;;;;0.00;0.00;;;;;28.99;39.28;100882.22;5125047;27;45216;-68
2021/06/28 10:01:48;;;;;;;;;0.00;0.00;;;;;30.16;38.26;100876.59;5124671;27;45224;-67
2021/06/28 10:05:04;;;;;;;;;0.00;0.00;;;;;30.05;37.25;100871.00;5105685;27;46538;-67
2021/06/28 10:07:37;;;;;;;;;0.00;0.00;;;;;29.56;37.12;100889.59;5040127;28;46548;-68
2021/06/28 10:10:13;;;;;;;;;0.00;0.00;;;;;29.10;38.22;100885.19;5108999;27;45293;-68
2021/06/28 10:12:43;;;;;;;;;0.00;0.00;;;;;28.72;37.71;100890.00;5121188;27;45381;-69
2021/06/28 10:15:13;;;;;;;;;0.00;0.00;;;;;28.45;38.63;100880.72;5106874;27;45276;-68
2021/06/28 10:17:40;;;;;;;;;0.00;0.00;;;;;28.37;38.63;100879.97;5111193;27;46479;-68
2021/06/28 10:20:12;;;;;;;;;0.00;0.00;;;;;29.31;38.61;100889.94;5124271;27;45345;-68
2021/06/28 10:22:39;;;;;;;;;0.00;0.00;;;;;29.79;37.05;100886.00;5124072;27;45215;-67
2021/06/28 10:25:07;;;;;;;;;0.00;0.00;;;;;30.12;35.88;100880.88;5124427;27;45340;-69
2021/06/28 10:27:37;;;;;;;;;0.00;0.00;;;;;30.63;35.51;100884.41;5123471;27;46367;-68
2021/06/28 10:30:08;;;;;;;;;0.00;0.00;;;;;30.77;35.17;100888.38;5123379;27;45225;-68
2021/06/28 10:32:34;;;;;;;;;0.00;0.00;;;;;32.40;34.37;100885.00;5123723;27;45330;-69
2021/06/28 10:35:00;;;;;;;;;0.00;0.00;;;;;33.48;31.83;100881.75;5124090;27;45391;-67
2021/06/28 10:37:45;;;;;;;;;1.00;0.00;;;;;32.71;30.38;100890.66;5104845;27;47292;-68
2021/06/28 10:40:16;;;;;;;;;0.00;0.00;;;;;32.66;30.97;100881.38;5123295;27;45182;-68
2021/06/28 10:42:47;;;;;;;;;0.00;0.00;;;;;33.16;31.25;100868.31;5123545;27;45314;-68
2021/06/28 10:45:16;;;;;;;;;0.00;0.00;;;;;33.04;30.94;100870.41;5123522;27;45462;-67
2021/06/28 10:48:12;;;;;;;;;0.00;0.00;;;;;32.60;31.82;100870.75;5123262;27;46456;-68
2021/06/28 10:50:55;;;;;;;;;0.00;0.00;;;;;31.92;32.49;100873.16;5123705;27;45410;-67
2021/06/28 10:53:33;;;;;;;;;0.00;0.00;;;;;31.21;31.68;100872.16;5105219;27;45505;-68
2021/06/28 10:56:25;;;;;;;;;0.00;0.00;;;;;30.65;32.63;100871.41;5123561;27;45239;-67
2021/06/28 10:58:59;;;;;;;;;0.00;0.00;;;;;29.82;33.34;100880.09;5123549;27;45223;-69
2021/06/28 11:01:38;;;;;;;;;0.00;0.00;;;;;28.89;34.44;100873.88;5123418;27;45443;-69
2021/06/28 11:04:09;;;;;;;;;0.00;0.00;;;;;28.30;35.69;100865.78;5123597;27;45421;-67
2021/06/28 11:06:36;;;;;;;;;0.00;0.00;;;;;27.90;36.72;100869.09;5103388;27;45279;-68
2021/06/28 11:09:05;;;;;;;;;0.00;0.00;;;;;27.73;37.80;100868.09;5098611;27;48004;-68
2021/06/28 11:11:43;;;;;;;;;0.00;0.00;;;;;27.76;37.80;100859.53;5104750;27;45642;-68
2021/06/28 11:14:17;;;;;;;;;0.00;0.00;;;;;28.60;37.58;100856.78;5106969;27;46528;-69
2021/06/28 11:17:07;;;;;;;;;0.00;0.00;;;;;29.47;36.08;100860.47;5113073;27;45212;-68
2021/06/28 11:22:30;;;;;;;;;0.00;0.00;;;;;29.52;35.64;100855.97;5123019;27;45225;-68
2021/06/28 11:25:02;;;;;;;;;0.00;0.00;;;;;30.36;34.93;100859.88;5123467;27;45251;-69
2021/06/28 11:27:28;;;;;;;;;0.00;0.00;;;;;30.38;34.49;100849.59;5123187;27;45292;-68
2021/06/28 11:29:54;;;;;;;;;0.00;0.00;;;;;30.14;34.80;100847.03;5104930;27;46002;-67